Terminal Aerodrome Forecast
Issued by NWS

Home | Current Version | Previous Version | Text Only | Print | Product List | Glossary On
Versions: 1 2 3 4 5 6 7 8 9 10 11 12 13 14 15 16 17 18 19
000
FTUS45 KFGZ 301735
TAFPRC
TAF
KPRC 301735Z 3018/0118 VRB06KT P6SM SCT070 BKN090
      TEMPO 3020/3024 VRB15G25KT 5SM -TSRA BKN060CB
     FM010000 20005KT P6SM SCT090 BKN120
      TEMPO 0100/0103 6SM -TSRA BKN050CB=

USA.gov is the U.S. government's official web portal to all federal, state and local government web resources and services.